createdAt,value
2018-01-12T00:01:12.492Z,26.40
2018-01-12T00:03:39.634Z,27.35
2018-01-12T00:06:06.062Z,26.70
2018-01-12T00:08:32.446Z,25.85
2018-01-12T00:10:59.612Z,26.07
2018-01-12T00:13:25.984Z,24.63
2018-01-12T00:15:52.418Z,27.87
2018-01-12T00:18:18.786Z,26.27
2018-01-12T00:20:45.925Z,25.60
2018-01-12T00:23:12.333Z,26.62
2018-01-12T00:25:38.698Z,26.45
2018-01-12T00:28:05.102Z,25.35
2018-01-12T00:30:31.490Z,24.95
2018-01-12T00:32:57.902Z,23.98
2018-01-12T00:35:24.270Z,24.23
2018-01-12T00:37:50.706Z,25.20
2018-01-12T00:40:17.138Z,23.75
2018-01-12T00:42:43.578Z,23.17
2018-01-12T00:45:10.069Z,24.00
2018-01-12T00:47:36.490Z,22.77
2018-01-12T00:50:02.913Z,22.85
2018-01-12T00:52:29.336Z,23.60
2018-01-12T00:54:55.792Z,23.90
2018-01-12T00:57:22.230Z,23.83
2018-01-12T00:59:48.645Z,22.23
2018-01-12T01:02:15.089Z,23.25
2018-01-12T01:04:41.473Z,23.38
2018-01-12T01:07:08.647Z,24.42
2018-01-12T01:09:35.066Z,23.08
2018-01-12T01:12:01.522Z,23.60
2018-01-12T01:14:27.921Z,23.62
2018-01-12T01:16:55.058Z,22.62
2018-01-12T01:19:22.181Z,23.60
2018-01-12T01:21:48.571Z,22.77
2018-01-12T01:24:14.985Z,21.50
2018-01-12T01:26:42.114Z,23.52
2018-01-12T01:29:08.486Z,23.35
2018-01-12T01:31:34.885Z,23.10
2018-01-12T01:34:01.278Z,23.05
2018-01-12T01:36:27.689Z,23.27
2018-01-12T01:38:54.080Z,22.92
2018-01-12T01:41:20.474Z,23.97
2018-01-12T01:43:46.897Z,23.73
2018-01-12T01:46:13.305Z,24.20
2018-01-12T01:48:40.506Z,24.30
2018-01-12T01:51:06.909Z,24.45
2018-01-12T01:53:33.281Z,24.67
2018-01-12T01:55:59.681Z,23.00
2018-01-12T01:58:26.058Z,23.80
2018-01-12T02:00:52.462Z,23.50
2018-01-12T02:03:18.894Z,23.43
2018-01-12T02:05:45.292Z,23.35
2018-01-12T02:08:12.441Z,24.77
2018-01-12T02:10:39.564Z,22.77
2018-01-12T02:13:05.950Z,23.73
2018-01-12T02:15:32.357Z,22.90
2018-01-12T02:17:58.728Z,23.33
2018-01-12T02:20:25.118Z,22.20
2018-01-12T02:22:51.497Z,23.15
2018-01-12T02:25:17.889Z,24.58
2018-01-12T02:27:44.274Z,24.07
2018-01-12T02:30:10.681Z,23.02
2018-01-12T02:32:37.074Z,22.48
2018-01-12T02:35:03.486Z,22.95
2018-01-12T02:37:29.882Z,23.20
2018-01-12T02:39:56.257Z,24.17
2018-01-12T02:42:22.650Z,23.30
2018-01-12T02:44:49.030Z,22.40
2018-01-12T02:47:15.470Z,23.38
2018-01-12T02:49:41.842Z,22.77
2018-01-12T02:52:09.006Z,23.27
2018-01-12T02:54:35.409Z,22.55
2018-01-12T02:57:01.796Z,22.70
2018-01-12T02:59:28.202Z,23.05
2018-01-12T03:01:54.589Z,23.80
2018-01-12T03:04:20.980Z,23.10
2018-01-12T03:06:47.401Z,22.60
2018-01-12T03:09:14.553Z,22.60
2018-01-12T03:11:41.693Z,23.53
2018-01-12T03:14:08.818Z,23.38
2018-01-12T03:16:35.209Z,24.00
2018-01-12T03:19:01.617Z,23.95
2018-01-12T03:21:28.790Z,21.87
2018-01-12T03:23:55.173Z,23.38
2018-01-12T03:26:22.297Z,23.17
2018-01-12T03:28:48.694Z,23.27
2018-01-12T03:31:15.814Z,23.42
2018-01-12T03:33:42.241Z,22.23
2018-01-12T03:36:08.622Z,23.33
2018-01-12T03:38:35.032Z,23.73
2018-01-12T03:41:02.189Z,22.55
2018-01-12T03:43:29.360Z,23.02
2018-01-12T03:45:55.777Z,24.00
2018-01-12T03:48:22.887Z,23.33
2018-01-12T03:50:49.272Z,25.12
2018-01-12T03:53:15.650Z,23.58
2018-01-12T03:55:42.058Z,23.73
2018-01-12T03:58:08.447Z,24.48
2018-01-12T04:00:34.866Z,24.23
2018-01-12T04:03:01.264Z,24.80
2018-01-12T04:05:27.671Z,23.27
2018-01-12T04:07:54.834Z,22.77
2018-01-12T04:10:21.262Z,23.67
2018-01-12T04:12:47.883Z,23.90
2018-01-12T04:15:27.755Z,24.42
2018-01-12T04:17:55.218Z,23.25
2018-01-12T04:20:21.617Z,25.73
2018-01-12T04:22:48.739Z,23.87
2018-01-12T04:25:15.150Z,24.33
2018-01-12T04:27:41.517Z,23.98
2018-01-12T04:30:07.923Z,23.40
2018-01-12T04:32:35.174Z,25.00
2018-01-12T04:35:01.594Z,24.57
2018-01-12T04:37:27.981Z,23.52
2018-01-12T04:39:54.372Z,24.60
2018-01-12T04:42:20.785Z,25.20
2018-01-12T04:44:47.161Z,25.27
2018-01-12T04:47:13.562Z,25.40
2018-01-12T04:49:39.969Z,26.83
2018-01-12T04:52:07.119Z,25.92
2018-01-12T04:54:34.234Z,25.40
2018-01-12T04:57:00.666Z,23.60
2018-01-12T04:59:27.055Z,24.85
2018-01-12T05:01:54.210Z,25.90
2018-01-12T05:04:20.595Z,24.23
2018-01-12T05:06:47.010Z,25.58
2018-01-12T05:09:13.459Z,25.00
2018-01-12T05:11:39.880Z,26.40
2018-01-12T05:14:06.374Z,25.60
2018-01-12T05:16:33.604Z,26.08
2018-01-12T05:19:00.075Z,23.77
2018-01-12T05:21:26.456Z,24.50
2018-01-12T05:23:52.853Z,23.15
2018-01-12T05:26:19.226Z,23.90
2018-01-12T05:28:45.629Z,24.60
2018-01-12T05:31:12.040Z,24.73
2018-01-12T05:33:38.560Z,24.42
2018-01-12T05:36:05.729Z,25.35
2018-01-12T05:38:33.622Z,24.60
2018-01-12T05:41:00.954Z,24.77
2018-01-12T05:43:28.954Z,23.53
2018-01-12T05:45:55.337Z,23.85
2018-01-12T05:48:22.491Z,23.02
2018-01-12T05:50:49.638Z,23.45
2018-01-12T05:53:17.085Z,23.45
2018-01-12T05:55:44.230Z,26.10
2018-01-12T05:58:10.634Z,24.80
2018-01-12T06:00:37.012Z,25.27
2018-01-12T06:03:16.469Z,24.25
2018-01-12T06:05:55.934Z,23.48
2018-01-12T06:08:22.330Z,25.42
2018-01-12T06:10:49.449Z,25.10
2018-01-12T06:13:16.038Z,25.30
2018-01-12T06:15:42.414Z,25.67
2018-01-12T06:18:08.853Z,26.20
2018-01-12T06:20:35.418Z,25.20
2018-01-12T06:23:02.546Z,26.25
2018-01-12T06:25:28.961Z,25.07
2018-01-12T06:27:55.353Z,25.67
2018-01-12T06:30:22.518Z,23.87
2018-01-12T06:32:48.909Z,25.92
2018-01-12T06:35:15.319Z,24.92
2018-01-12T06:37:41.710Z,27.02
2018-01-12T06:40:08.862Z,24.45
2018-01-12T06:42:35.989Z,27.10
2018-01-12T06:45:02.402Z,26.10
2018-01-12T06:47:28.790Z,24.67
2018-01-12T06:49:55.165Z,26.45
2018-01-12T06:52:21.569Z,25.45
2018-01-12T06:54:47.981Z,26.90
2018-01-12T06:57:15.117Z,25.60
2018-01-12T06:59:42.258Z,25.98
2018-01-12T07:02:08.650Z,25.37
2018-01-12T07:04:35.059Z,25.02
2018-01-12T07:07:01.442Z,23.10
2018-01-12T07:09:27.858Z,23.87
2018-01-12T07:11:54.303Z,23.87
2018-01-12T07:14:20.721Z,22.92
2018-01-12T07:16:47.129Z,22.45
2018-01-12T07:19:13.562Z,24.25
2018-01-12T07:21:52.302Z,24.05
2018-01-12T07:24:18.746Z,24.37
2018-01-12T07:26:45.206Z,25.05
2018-01-12T07:29:11.593Z,24.08
2018-01-12T07:31:38.001Z,24.50
2018-01-12T07:34:04.441Z,23.58
2018-01-12T07:36:31.603Z,23.30
2018-01-12T07:38:58.749Z,24.58
2018-01-12T07:41:25.919Z,28.00
2018-01-12T07:43:52.325Z,26.75
2018-01-12T07:46:19.466Z,27.23
2018-01-12T07:48:45.864Z,23.80
2018-01-12T07:51:12.273Z,23.90
2018-01-12T07:53:38.692Z,23.00
2018-01-12T07:56:05.833Z,23.67
2018-01-12T07:58:32.989Z,24.08
2018-01-12T08:01:06.211Z,24.60
2018-01-12T08:03:32.620Z,23.65
2018-01-12T08:05:59.745Z,22.52
2018-01-12T08:08:26.149Z,24.23
2018-01-12T08:10:52.548Z,23.55
2018-01-12T08:13:20.179Z,23.70
2018-01-12T08:15:46.576Z,24.63
2018-01-12T08:18:12.982Z,23.50
2018-01-12T08:20:39.377Z,24.33
2018-01-12T08:23:05.777Z,26.77
2018-01-12T08:25:32.238Z,25.33
2018-01-12T08:27:58.669Z,23.50
2018-01-12T08:30:25.145Z,27.87
2018-01-12T08:32:52.286Z,30.73
2018-01-12T08:35:19.417Z,21.33
2018-01-12T18:46:31.265Z,28.98
2018-01-12T18:48:59.699Z,28.23
2018-01-12T18:51:28.274Z,28.52
2018-01-12T18:53:57.151Z,28.75
2018-01-12T18:56:24.309Z,28.23
2018-01-12T18:58:50.950Z,29.23
2018-01-12T19:01:17.338Z,26.92
2018-01-12T19:03:43.749Z,28.48
2018-01-12T19:06:10.160Z,29.55
2018-01-12T19:08:36.666Z,27.63
2018-01-12T19:11:03.823Z,27.10
2018-01-12T19:13:30.974Z,27.05
2018-01-12T19:15:58.158Z,26.17
2018-01-12T19:18:24.622Z,27.60
2018-01-12T19:20:51.116Z,31.30
2018-01-12T19:23:18.092Z,26.67
2018-01-12T19:25:44.526Z,26.12
2018-01-12T19:28:10.962Z,24.15
2018-01-12T19:30:37.400Z,25.10
2018-01-12T19:33:03.821Z,24.70
2018-01-12T19:35:30.210Z,26.27
2018-01-12T19:37:57.370Z,26.00
2018-01-12T19:40:31.895Z,26.08
2018-01-12T19:42:59.177Z,26.20
2018-01-12T19:45:25.675Z,27.70
2018-01-12T19:47:52.131Z,28.55
2018-01-12T19:50:19.761Z,28.17
2018-01-12T19:52:47.058Z,26.25
2018-01-12T19:55:13.537Z,27.43
2018-01-12T19:57:40.133Z,29.92
2018-01-12T20:00:07.239Z,27.77
2018-01-12T20:02:34.042Z,27.87
2018-01-12T20:05:00.492Z,28.93
2018-01-12T20:07:26.973Z,28.02
2018-01-12T20:09:54.173Z,27.98
2018-01-12T20:12:20.571Z,27.60
2018-01-12T20:14:47.094Z,28.87
2018-01-12T20:17:14.506Z,28.17
2018-01-12T20:19:41.081Z,28.60
2018-01-12T20:22:08.272Z,29.08
2018-01-12T20:24:34.812Z,27.17
2018-01-12T20:27:01.233Z,27.98
2018-01-12T20:29:27.648Z,27.37
2018-01-12T20:31:54.104Z,28.95
2018-01-12T20:34:20.591Z,27.00
2018-01-12T20:36:47.029Z,26.43
2018-01-12T20:39:13.481Z,28.23
2018-01-12T20:41:39.983Z,28.70
2018-01-12T20:44:06.485Z,27.90
2018-01-12T20:46:32.942Z,29.15
2018-01-12T20:48:59.451Z,29.55
2018-01-12T20:51:25.837Z,31.67
2018-01-12T20:53:52.261Z,30.73
2018-01-12T20:56:18.679Z,31.52
2018-01-12T20:58:45.138Z,32.45
2018-01-12T21:01:11.565Z,30.80
2018-01-12T21:03:39.154Z,29.65
2018-01-12T21:06:06.164Z,30.42
2018-01-12T21:08:33.478Z,32.17
2018-01-12T21:11:00.771Z,32.67
2018-01-12T21:13:28.550Z,31.75
2018-01-12T21:15:54.946Z,31.63
2018-01-12T21:18:21.372Z,31.37
2018-01-12T21:20:49.094Z,32.53
2018-01-12T21:23:17.044Z,32.83
2018-01-12T21:25:44.295Z,33.60
2018-01-12T21:28:10.728Z,33.47
2018-01-12T21:30:37.349Z,31.67
2018-01-12T21:33:03.779Z,30.80
2018-01-12T21:35:30.185Z,23.48
2018-01-12T21:37:56.561Z,31.58
2018-01-12T21:40:24.038Z,29.75
2018-01-12T21:42:50.430Z,30.05
2018-01-12T21:45:17.586Z,30.87
2018-01-12T21:47:45.385Z,29.73
2018-01-12T21:50:13.634Z,30.77
2018-01-12T21:52:41.528Z,31.02
2018-01-12T21:55:07.977Z,31.23
2018-01-12T21:57:34.401Z,26.00
2018-01-12T22:00:00.806Z,25.70
2018-01-12T22:02:28.939Z,26.40
2018-01-12T22:04:55.360Z,27.62
2018-01-12T22:07:21.760Z,29.95
2018-01-12T22:09:49.131Z,31.40
2018-01-12T22:12:16.898Z,32.10
2018-01-12T22:14:44.080Z,32.13
2018-01-12T22:17:10.521Z,31.92
2018-01-12T22:19:36.951Z,31.42
2018-01-12T22:22:03.366Z,32.23
2018-01-12T22:24:29.786Z,31.15
2018-01-12T22:26:56.161Z,31.85
2018-01-12T22:29:22.573Z,32.58
2018-01-12T22:31:48.941Z,32.40
2018-01-12T22:34:16.101Z,31.55
2018-01-12T22:36:43.275Z,31.67
2018-01-12T22:39:09.670Z,29.25
2018-01-12T22:41:37.901Z,27.80
2018-01-12T22:44:04.306Z,26.27
2018-01-12T22:46:31.452Z,25.10
2018-01-12T22:48:58.643Z,23.25
2018-01-12T22:51:25.017Z,22.23
2018-01-12T22:53:51.430Z,23.10
2018-01-12T22:56:17.805Z,22.50
2018-01-12T22:58:45.004Z,23.17
2018-01-12T23:01:11.582Z,22.30
2018-01-12T23:03:38.729Z,22.62
2018-01-12T23:06:05.165Z,22.00
2018-01-12T23:08:31.582Z,21.05
2018-01-12T23:10:58.000Z,22.98
2018-01-12T23:13:24.434Z,22.75
2018-01-12T23:15:52.342Z,22.62
2018-01-12T23:18:21.528Z,23.52
2018-01-12T23:20:49.575Z,24.37
2018-01-12T23:23:18.101Z,23.02
2018-01-12T23:25:44.580Z,23.83
2018-01-12T23:28:10.971Z,23.70
2018-01-12T23:30:38.186Z,23.42
2018-01-12T23:33:04.630Z,22.70
2018-01-12T23:35:31.070Z,23.40
2018-01-12T23:37:57.489Z,24.33
2018-01-12T23:40:24.784Z,26.20
2018-01-12T23:42:51.997Z,27.40
2018-01-12T23:45:18.389Z,28.55
2018-01-12T23:47:44.792Z,32.53
2018-01-12T23:50:11.238Z,31.87
2018-01-12T23:52:38.388Z,29.45
2018-01-12T23:55:04.828Z,29.58
2018-01-12T23:57:31.957Z,28.67
2018-01-12T23:59:58.356Z,31.33
